South Bound Brook, New Jersey
Current Conditions -  °F | °C
As of 4:53 AM on Sunday 25 Jan 2015 (Local Time) from KSMQ Reporting Station
Clear Clear  
Wind Chill: 34°   Ceiling: Unl
Heat Index: 34°   Visibility: 10mi
Dew Point: 24°   Wind: 3mph
Humidity: 67%   Direction: NA
Pressure: 29.61"   Gusts: NA
Location:  40.55°N, 74.53°W
Report Text: KSMQ 250953Z AUTO VRB03KT 10SM CLR 01/M04 A2961 RMK AO2 SLP031 T00111044 TSNO $
Loading
Personal Weather Stations






























Interactive Weather Map New forecast layout! Learn more

10-Day Weather Forecast

Advertisements
Track Severe Weather on mobile